Terminal Aerodrome Forecast
Issued by NWS

Home | Current Version | Previous Version | Text Only | Print | Product List | Glossary On
Versions: 1 2 3 4 5 6 7 8 9 10 11 12 13 14 15 16 17 18 19 20
850
FTAK31 PAJN 241142 RRA
TAFASI
TAF
PASI 241142Z 2412/2512 10003KT P6SM OVC035
     FM241600 12010KT 2SM -SN BR SCT012 OVC020
     FM242100 12015G23KT 6SM -RA SCT010 BKN020
     FM250000 23012KT P6SM -SHRASN BKN020 OVC040
     FM250500 17008KT P6SM -SHSNRA FEW010 BKN040=

USA.gov is the U.S. government's official web portal to all federal, state and local government web resources and services.